createdAt,value
2023-07-09T00:00:58.596Z,56.03
2023-07-09T00:03:26.060Z,55.75
2023-07-09T00:05:53.253Z,56.12
2023-07-09T00:08:30.786Z,55.99
2023-07-09T00:10:59.146Z,55.06
2023-07-09T00:13:27.302Z,54.93
2023-07-09T00:15:56.688Z,56.72
2023-07-09T00:18:24.824Z,56.06
2023-07-09T00:20:51.999Z,55.94
2023-07-09T00:23:21.247Z,55.74
2023-07-09T00:25:48.768Z,55.90
2023-07-09T00:28:16.812Z,58.47
2023-07-09T00:30:45.164Z,55.76
2023-07-09T00:33:15.449Z,57.31
2023-07-09T00:35:43.205Z,57.11
2023-07-09T00:38:14.079Z,56.43
2023-07-09T00:40:46.681Z,55.27
2023-07-09T00:43:15.934Z,57.06
2023-07-09T00:45:43.453Z,57.17
2023-07-09T00:48:15.149Z,57.45
2023-07-09T00:50:47.240Z,58.55
2023-07-09T00:53:19.385Z,56.62
2023-07-09T00:55:47.436Z,55.33
2023-07-09T00:58:16.504Z,58.22
2023-07-09T01:00:49.632Z,59.72
2023-07-09T01:03:28.414Z,58.33
2023-07-09T01:05:56.679Z,59.41
2023-07-09T01:08:24.582Z,59.16
2023-07-09T01:10:51.776Z,58.46
2023-07-09T01:13:20.776Z,59.65
2023-07-09T01:15:48.366Z,59.74
2023-07-09T01:18:15.798Z,58.48
2023-07-09T01:20:43.031Z,59.69
2023-07-09T01:23:10.674Z,59.82
2023-07-09T01:25:40.002Z,58.59
2023-07-09T01:28:07.262Z,60.72
2023-07-09T01:30:39.073Z,59.15
2023-07-09T01:33:07.325Z,59.67
2023-07-09T01:35:36.500Z,60.15
2023-07-09T01:38:03.691Z,59.75
2023-07-09T01:40:32.067Z,57.77
2023-07-09T01:43:01.395Z,58.02
2023-07-09T01:45:29.347Z,57.99
2023-07-09T01:47:56.936Z,58.90
2023-07-09T01:50:26.169Z,58.93
2023-07-09T01:52:54.433Z,59.41
2023-07-09T01:55:21.951Z,59.46
2023-07-09T01:57:52.271Z,57.99
2023-07-09T02:00:19.910Z,57.96
2023-07-09T02:02:49.807Z,58.70
2023-07-09T02:05:21.658Z,59.33
2023-07-09T02:07:49.276Z,57.93
2023-07-09T02:10:17.827Z,57.48
2023-07-09T02:12:45.279Z,58.12
2023-07-09T02:15:12.937Z,57.59
2023-07-09T02:17:40.580Z,58.57
2023-07-09T02:20:09.543Z,59.18
2023-07-09T02:22:37.208Z,59.78
2023-07-09T02:25:05.217Z,60.46
2023-07-09T02:27:32.517Z,60.61
2023-07-09T02:29:59.706Z,59.96
2023-07-09T02:32:27.837Z,60.36
2023-07-09T02:34:55.704Z,58.96
2023-07-09T02:37:25.029Z,61.47
2023-07-09T02:39:52.630Z,60.56
2023-07-09T02:42:21.359Z,59.26
2023-07-09T02:44:48.739Z,58.06
2023-07-09T02:47:16.310Z,59.20
2023-07-09T02:49:43.815Z,58.70
2023-07-09T02:52:11.037Z,60.58
2023-07-09T02:54:38.532Z,61.33
2023-07-09T02:57:05.816Z,61.02
2023-07-09T02:59:33.879Z,60.54
2023-07-09T03:02:01.697Z,61.47
2023-07-09T03:04:29.048Z,60.52
2023-07-09T03:06:56.796Z,60.90
2023-07-09T03:09:24.515Z,61.15
2023-07-09T03:11:51.802Z,63.21
2023-07-09T03:14:19.004Z,62.64
2023-07-09T03:16:46.500Z,62.48
2023-07-09T03:19:13.835Z,62.42
2023-07-09T03:21:41.069Z,62.49
2023-07-09T03:24:09.594Z,59.67
2023-07-09T03:26:37.085Z,61.11
2023-07-09T03:29:04.282Z,61.25
2023-07-09T03:31:32.270Z,59.56
2023-07-09T03:33:59.609Z,59.72
2023-07-09T03:36:26.771Z,59.99
2023-07-09T03:38:54.266Z,60.78
2023-07-09T03:41:21.474Z,61.41
2023-07-09T03:43:51.267Z,60.28
2023-07-09T03:46:18.728Z,60.36
2023-07-09T03:48:46.030Z,59.57
2023-07-09T03:51:13.373Z,59.67
2023-07-09T03:53:40.854Z,60.24
2023-07-09T03:56:08.096Z,59.36
2023-07-09T03:58:36.175Z,58.59
2023-07-09T04:01:03.790Z,58.91
2023-07-09T04:03:31.436Z,58.71
2023-07-09T04:05:58.656Z,60.24
2023-07-09T04:08:26.965Z,59.13
2023-07-09T04:10:56.071Z,59.22
2023-07-09T04:13:24.316Z,58.96
2023-07-09T04:15:51.649Z,58.65
2023-07-09T04:18:19.156Z,58.18
2023-07-09T04:20:50.730Z,58.33
2023-07-09T04:23:19.158Z,58.09
2023-07-09T04:25:46.483Z,58.71
2023-07-09T04:28:14.398Z,58.46
2023-07-09T04:30:46.479Z,57.74
2023-07-09T04:33:13.650Z,56.85
2023-07-09T04:35:41.092Z,57.80
2023-07-09T04:38:09.517Z,57.70
2023-07-09T04:40:37.063Z,58.16
2023-07-09T04:43:04.289Z,57.74
2023-07-09T04:45:31.756Z,57.13
2023-07-09T04:47:59.008Z,58.34
2023-07-09T04:50:26.460Z,57.99
2023-07-09T04:52:53.991Z,58.45
2023-07-09T04:55:22.813Z,57.83
2023-07-09T04:57:50.054Z,57.20
2023-07-09T05:00:17.562Z,56.59
2023-07-09T05:02:44.844Z,56.06
2023-07-09T05:05:13.075Z,55.70
2023-07-09T05:07:41.072Z,56.03
2023-07-09T05:10:08.401Z,56.15
2023-07-09T05:12:35.681Z,55.75
2023-07-09T05:15:03.252Z,55.82
2023-07-09T05:17:31.592Z,55.38
2023-07-09T05:19:58.850Z,55.45
2023-07-09T05:22:26.360Z,54.74
2023-07-09T05:24:53.576Z,54.65
2023-07-09T05:27:20.780Z,55.18
2023-07-09T05:29:48.308Z,54.62
2023-07-09T05:32:15.480Z,54.19
2023-07-09T05:34:42.657Z,54.03
2023-07-09T05:37:10.146Z,52.52
2023-07-09T05:39:37.379Z,52.74
2023-07-09T05:42:04.825Z,52.66
2023-07-09T05:44:32.434Z,52.68
2023-07-09T05:46:59.695Z,52.22
2023-07-09T05:49:26.916Z,52.17
2023-07-09T05:51:54.508Z,52.42
2023-07-09T05:54:22.559Z,52.55
2023-07-09T05:56:49.866Z,52.75
2023-07-09T05:59:17.381Z,51.37
2023-07-09T06:01:44.604Z,50.26
2023-07-09T06:04:15.014Z,50.09
2023-07-09T06:06:42.691Z,49.81
2023-07-09T06:09:09.947Z,49.62
2023-07-09T06:11:37.437Z,48.93
2023-07-09T06:14:04.690Z,48.63
2023-07-09T06:16:32.841Z,48.53
2023-07-09T06:19:00.399Z,47.59
2023-07-09T06:21:27.599Z,47.79
2023-07-09T06:23:54.785Z,46.65
2023-07-09T06:26:22.319Z,43.12
2023-07-09T06:28:50.002Z,41.92
2023-07-09T06:31:17.278Z,43.34
2023-07-09T06:33:44.774Z,42.45
2023-07-09T06:36:11.988Z,42.34
2023-07-09T06:38:39.182Z,41.79
2023-07-09T06:41:06.698Z,41.35
2023-07-09T06:43:33.972Z,40.51
2023-07-09T06:46:01.497Z,39.42
2023-07-09T06:48:29.660Z,39.09
2023-07-09T06:50:57.085Z,38.83
2023-07-09T06:53:24.735Z,37.73
2023-07-09T06:55:54.111Z,36.70
2023-07-09T06:58:21.396Z,35.73
2023-07-09T07:00:50.103Z,35.79
2023-07-09T07:03:17.856Z,35.62
2023-07-09T07:05:45.931Z,35.78
2023-07-09T07:08:14.737Z,35.07
2023-07-09T07:10:42.333Z,35.11
2023-07-09T07:13:12.055Z,34.81
2023-07-09T07:15:39.400Z,34.35
2023-07-09T07:18:07.143Z,33.69
2023-07-09T07:20:34.641Z,34.21
2023-07-09T07:23:01.991Z,32.97
2023-07-09T07:25:31.605Z,32.21
2023-07-09T07:27:58.852Z,33.00
2023-07-09T07:30:26.485Z,33.42
2023-07-09T07:32:54.044Z,33.36
2023-07-09T07:35:21.292Z,32.46
2023-07-09T07:37:48.476Z,32.69
2023-07-09T07:40:15.988Z,32.38
2023-07-09T07:42:43.184Z,31.74
2023-07-09T07:45:10.497Z,30.91
2023-07-09T07:47:38.664Z,31.11
2023-07-09T07:50:06.877Z,31.54
2023-07-09T07:52:34.658Z,31.38
2023-07-09T07:55:02.171Z,31.26
2023-07-09T07:57:29.368Z,30.15
2023-07-09T07:59:56.615Z,29.54
2023-07-09T08:02:24.492Z,30.22
2023-07-09T08:04:52.096Z,30.15
2023-07-09T08:07:19.852Z,28.74
2023-07-09T08:09:49.980Z,27.43
2023-07-09T08:12:17.878Z,28.91
2023-07-09T08:14:46.201Z,29.11
2023-07-09T08:17:13.411Z,29.22
2023-07-09T08:19:51.454Z,28.14
2023-07-09T08:22:21.763Z,27.50
2023-07-09T08:24:49.930Z,27.99
2023-07-09T08:27:17.097Z,26.87
2023-07-09T08:29:44.367Z,27.86
2023-07-09T08:32:12.321Z,27.78
2023-07-09T08:34:50.128Z,27.37
2023-07-09T08:37:27.476Z,27.02
2023-07-09T08:39:54.808Z,26.40
2023-07-09T08:42:23.466Z,26.66
2023-07-09T08:44:53.149Z,26.30
2023-07-09T08:47:20.464Z,25.95
2023-07-09T08:49:49.104Z,25.25
2023-07-09T08:52:20.423Z,25.47
2023-07-09T08:54:47.657Z,25.27
2023-07-09T08:57:26.388Z,24.02
2023-07-09T08:59:55.123Z,23.73
2023-07-09T09:02:27.087Z,24.26
2023-07-09T09:04:54.570Z,24.90
2023-07-09T09:07:41.768Z,24.56
2023-07-09T09:10:19.311Z,24.49
2023-07-09T09:12:55.341Z,24.38
2023-07-09T09:15:22.863Z,24.85
2023-07-09T09:17:51.538Z,24.66
2023-07-09T09:20:22.392Z,25.13
2023-07-09T09:22:51.714Z,24.60
2023-07-09T09:25:29.527Z,23.53
2023-07-09T09:27:57.007Z,22.62
2023-07-09T09:30:25.184Z,23.20
2023-07-09T09:32:53.828Z,23.91
2023-07-09T09:35:22.230Z,24.82
2023-07-09T09:37:53.340Z,25.50
2023-07-09T09:40:24.744Z,24.48
2023-07-09T09:42:52.957Z,23.23
2023-07-09T09:45:21.875Z,23.72
2023-07-09T09:47:49.774Z,23.14
2023-07-09T09:50:18.169Z,23.45
2023-07-09T09:52:50.481Z,23.36
2023-07-09T09:55:21.618Z,23.11
2023-07-09T09:57:52.684Z,23.44
2023-07-09T10:00:22.707Z,23.57
2023-07-09T10:02:50.340Z,24.62
2023-07-09T10:05:18.116Z,24.44
2023-07-09T10:07:57.567Z,23.85
2023-07-09T10:10:25.227Z,23.85
2023-07-09T10:12:53.360Z,22.54
2023-07-09T10:15:24.575Z,23.45
2023-07-09T10:17:55.190Z,23.53
2023-07-09T10:20:28.166Z,22.49
2023-07-09T10:22:58.944Z,22.96
2023-07-09T10:25:26.206Z,22.55
2023-07-09T10:27:53.378Z,22.98
2023-07-09T10:30:35.985Z,22.76
2023-07-09T10:33:09.190Z,22.66
2023-07-09T10:35:42.226Z,22.73
2023-07-09T10:38:19.078Z,22.16
2023-07-09T10:40:49.844Z,22.35
2023-07-09T10:43:22.121Z,22.30
2023-07-09T10:45:59.953Z,22.07
2023-07-09T10:48:30.236Z,20.95
2023-07-09T10:50:57.694Z,21.09
2023-07-09T10:53:33.309Z,21.75
2023-07-09T10:56:01.981Z,22.07
2023-07-09T10:58:34.535Z,22.81
2023-07-09T11:01:02.570Z,21.54
2023-07-09T11:03:42.264Z,21.25
2023-07-09T11:06:12.147Z,22.47
2023-07-09T11:08:39.792Z,22.78
2023-07-09T11:11:11.340Z,23.29
2023-07-09T11:13:51.849Z,23.76
2023-07-09T11:16:28.517Z,24.01
2023-07-09T11:18:57.759Z,23.00
2023-07-09T11:21:24.979Z,23.59
2023-07-09T11:23:53.048Z,22.82
2023-07-09T11:26:27.652Z,22.51
2023-07-09T11:29:13.722Z,22.84
2023-07-09T11:31:42.108Z,22.64
2023-07-09T11:34:10.546Z,21.92
2023-07-09T11:36:56.362Z,21.64
2023-07-09T11:39:30.652Z,20.50
2023-07-09T11:41:57.963Z,20.43
2023-07-09T11:44:32.092Z,21.53
2023-07-09T11:47:18.512Z,21.79
2023-07-09T11:50:02.380Z,21.17
2023-07-09T11:52:38.158Z,21.66
2023-07-09T11:55:24.452Z,21.78
2023-07-09T11:57:58.444Z,22.68
2023-07-09T12:00:27.021Z,22.12
2023-07-09T12:02:54.517Z,22.62
2023-07-09T12:05:28.839Z,21.80
2023-07-09T12:07:57.880Z,21.50
2023-07-09T12:10:25.660Z,21.32
2023-07-09T12:12:56.959Z,21.72
2023-07-09T12:15:26.051Z,21.68
2023-07-09T12:17:54.384Z,20.68
2023-07-09T12:20:21.932Z,20.50
2023-07-09T12:22:49.577Z,20.40
2023-07-09T12:25:21.078Z,20.71
2023-07-09T12:27:48.798Z,21.50
2023-07-09T12:30:16.469Z,21.77
2023-07-09T12:32:44.192Z,21.11
2023-07-09T12:35:13.141Z,21.49
2023-07-09T12:37:40.679Z,22.66
2023-07-09T12:40:12.511Z,22.19
2023-07-09T12:42:39.763Z,21.96
2023-07-09T12:45:09.534Z,22.22
2023-07-09T12:47:36.767Z,21.53
2023-07-09T12:50:09.366Z,22.34
2023-07-09T12:52:36.873Z,21.50
2023-07-09T12:55:04.181Z,20.18
2023-07-09T12:57:32.029Z,20.62
2023-07-09T12:59:59.767Z,20.41
2023-07-09T13:02:30.469Z,20.15
2023-07-09T13:05:02.314Z,19.82
2023-07-09T13:07:36.070Z,19.98
2023-07-09T13:10:35.876Z,19.71
2023-07-09T13:13:03.869Z,20.13
2023-07-09T13:15:33.093Z,20.16
2023-07-09T13:18:01.525Z,20.28
2023-07-09T13:20:29.428Z,19.06
2023-07-09T13:22:56.850Z,19.78
2023-07-09T13:25:36.716Z,20.28
2023-07-09T13:28:22.100Z,19.64
2023-07-09T13:30:49.822Z,19.56
2023-07-09T13:33:18.949Z,20.07
2023-07-09T13:35:46.758Z,20.55
2023-07-09T13:38:15.083Z,19.51
2023-07-09T13:40:45.380Z,20.04
2023-07-09T13:43:16.818Z,20.35
2023-07-09T13:45:44.389Z,19.87
2023-07-09T13:48:13.689Z,19.69
2023-07-09T13:50:41.080Z,20.36
2023-07-09T13:53:15.986Z,20.26
2023-07-09T13:55:43.301Z,19.08
2023-07-09T13:58:11.816Z,19.41
2023-07-09T14:00:40.027Z,19.99
2023-07-09T14:03:19.488Z,19.08
2023-07-09T14:05:47.371Z,20.02
2023-07-09T14:08:16.224Z,19.62
2023-07-09T14:10:43.768Z,18.67
2023-07-09T14:13:14.734Z,19.22
2023-07-09T14:15:42.465Z,19.16
2023-07-09T14:18:12.661Z,20.16
2023-07-09T14:20:39.947Z,20.06
2023-07-09T14:23:09.415Z,19.84
2023-07-09T14:25:36.633Z,19.45
2023-07-09T14:28:05.587Z,19.53
2023-07-09T14:30:33.179Z,19.62
2023-07-09T14:33:00.506Z,19.72
2023-07-09T14:35:27.967Z,19.24
2023-07-09T14:37:56.148Z,19.08
2023-07-09T14:40:23.698Z,19.66
2023-07-09T14:42:51.273Z,20.18
2023-07-09T14:45:18.852Z,19.96
2023-07-09T14:47:46.536Z,19.96
2023-07-09T14:50:13.794Z,20.38
2023-07-09T14:52:42.280Z,19.90
2023-07-09T14:55:14.233Z,20.59
2023-07-09T14:57:41.690Z,20.90
2023-07-09T15:00:13.239Z,20.14
2023-07-09T15:02:41.017Z,20.18
2023-07-09T15:05:16.124Z,19.99
2023-07-09T15:07:43.517Z,20.02
2023-07-09T15:10:13.634Z,20.48
2023-07-09T15:12:40.865Z,20.30
2023-07-09T15:15:25.196Z,20.49
2023-07-09T15:17:52.736Z,20.95
2023-07-09T15:20:25.183Z,20.66
2023-07-09T15:22:52.937Z,21.37
2023-07-09T15:25:20.828Z,20.48
2023-07-09T15:27:48.161Z,20.89
2023-07-09T15:30:16.800Z,20.81
2023-07-09T15:32:44.872Z,20.80
2023-07-09T15:35:12.273Z,20.73
2023-07-09T15:37:39.750Z,20.56
2023-07-09T15:40:29.280Z,20.98
2023-07-09T15:42:58.453Z,20.73
2023-07-09T15:45:25.741Z,21.02
2023-07-09T15:47:53.976Z,21.13
2023-07-09T15:50:23.192Z,21.22
2023-07-09T15:52:51.121Z,22.06
2023-07-09T15:55:21.013Z,22.30
2023-07-09T15:57:49.355Z,22.09
2023-07-09T16:00:20.877Z,21.27
2023-07-09T16:02:49.847Z,21.66
2023-07-09T16:05:20.045Z,22.21
2023-07-09T16:07:47.372Z,22.36
2023-07-09T16:10:14.993Z,21.56
2023-07-09T16:12:46.320Z,22.11
2023-07-09T16:15:15.328Z,21.73
2023-07-09T16:17:43.292Z,21.94
2023-07-09T16:20:11.475Z,22.21
2023-07-09T16:22:42.503Z,22.75
2023-07-09T16:25:13.863Z,21.55
2023-07-09T16:27:42.337Z,21.26
2023-07-09T16:30:14.118Z,21.83
2023-07-09T16:32:41.306Z,22.02
2023-07-09T16:35:12.055Z,22.09
2023-07-09T16:37:39.872Z,21.93
2023-07-09T16:40:13.380Z,22.15
2023-07-09T16:42:43.194Z,22.61
2023-07-09T16:45:11.926Z,22.89
2023-07-09T16:47:39.138Z,22.38
2023-07-09T16:50:06.856Z,22.07
2023-07-09T16:52:34.123Z,22.79
2023-07-09T16:55:01.395Z,22.59
2023-07-09T16:57:29.576Z,23.04
2023-07-09T16:59:59.271Z,22.90
2023-07-09T17:02:27.919Z,22.86
2023-07-09T17:04:56.150Z,23.15
2023-07-09T17:07:23.433Z,23.31
2023-07-09T17:09:50.746Z,22.88
2023-07-09T17:12:18.355Z,23.10
2023-07-09T17:14:45.713Z,24.05
2023-07-09T17:17:22.564Z,23.82
2023-07-09T17:19:50.194Z,23.89
2023-07-09T17:22:21.405Z,23.72
2023-07-09T17:24:48.785Z,24.26
2023-07-09T17:27:16.323Z,24.51
2023-07-09T18:48:44.171Z,38.99
2023-07-09T18:51:13.156Z,38.99
2023-07-09T18:53:41.251Z,38.16
2023-07-09T18:56:09.167Z,37.26
2023-07-09T18:58:38.996Z,36.50
2023-07-09T19:01:19.485Z,36.18
2023-07-09T19:03:47.818Z,35.59
2023-07-09T19:06:15.414Z,35.07
2023-07-09T19:08:43.568Z,34.64
2023-07-09T19:11:11.339Z,35.32
2023-07-09T19:13:38.762Z,35.53
2023-07-09T19:16:22.727Z,35.70
2023-07-09T19:18:50.815Z,35.93
2023-07-09T19:21:19.090Z,36.11
2023-07-09T19:23:46.569Z,37.05
2023-07-09T19:26:14.238Z,37.67
2023-07-09T19:28:41.789Z,38.25
2023-07-09T19:31:09.400Z,39.26
2023-07-09T19:33:38.628Z,39.58
2023-07-09T19:36:24.296Z,40.27
2023-07-09T19:38:53.061Z,41.08
2023-07-09T19:41:21.680Z,41.72
2023-07-09T19:43:49.266Z,41.63
2023-07-09T19:46:22.467Z,41.44
2023-07-09T19:48:50.252Z,41.58
2023-07-09T19:51:18.577Z,41.92
2023-07-09T19:53:46.895Z,43.07
2023-07-09T19:56:14.987Z,42.85
2023-07-09T19:58:43.611Z,43.11
2023-07-09T20:01:16.307Z,44.09
2023-07-09T20:03:44.206Z,43.77
2023-07-09T20:06:12.802Z,44.73
2023-07-09T20:08:40.589Z,44.69
2023-07-09T20:11:13.841Z,43.97
2023-07-09T20:13:41.797Z,44.59
2023-07-09T20:16:24.062Z,44.60
2023-07-09T20:18:53.738Z,43.00
2023-07-09T20:21:23.998Z,43.98
2023-07-09T20:23:52.086Z,44.17
2023-07-09T20:26:19.643Z,43.95
2023-07-09T20:28:47.709Z,43.66
2023-07-09T20:31:21.575Z,43.63
2023-07-09T20:33:59.644Z,43.33
2023-07-09T20:36:27.242Z,42.93
2023-07-09T20:38:55.069Z,42.58
2023-07-09T20:41:23.896Z,42.54
2023-07-09T20:43:51.732Z,42.82
2023-07-09T20:46:20.479Z,44.05
2023-07-09T20:48:48.651Z,43.42
2023-07-09T20:51:16.398Z,43.62
2023-07-09T20:53:44.363Z,42.88
2023-07-09T20:56:15.583Z,43.36
2023-07-09T20:58:43.360Z,43.54
2023-07-09T21:01:16.940Z,44.14
2023-07-09T21:03:44.409Z,44.22
2023-07-09T21:06:17.279Z,44.57
2023-07-09T21:08:44.827Z,44.99
2023-07-09T21:11:12.521Z,46.55
2023-07-09T21:13:40.068Z,45.80
2023-07-09T21:16:18.038Z,45.95
2023-07-09T21:18:45.766Z,46.69
2023-07-09T21:21:13.496Z,46.75
2023-07-09T21:23:41.183Z,46.09
2023-07-09T21:26:15.622Z,46.24
2023-07-09T21:28:43.049Z,46.34
2023-07-09T21:31:18.447Z,47.07
2023-07-09T21:33:46.038Z,46.57
2023-07-09T21:36:13.707Z,46.72
2023-07-09T21:38:41.113Z,45.54
2023-07-09T21:41:08.583Z,45.29
2023-07-09T21:43:36.313Z,45.53
2023-07-09T21:46:04.052Z,45.79
2023-07-09T21:48:31.984Z,46.20
2023-07-09T21:50:59.754Z,46.74
2023-07-09T21:53:55.120Z,46.86
2023-07-09T21:56:17.630Z,46.79
2023-07-09T21:58:45.017Z,49.19
2023-07-09T22:01:16.155Z,50.02
2023-07-09T22:03:43.991Z,50.16
2023-07-09T22:06:12.314Z,50.09
2023-07-09T22:08:47.702Z,49.48
2023-07-09T22:11:27.851Z,50.03
2023-07-09T22:13:56.877Z,50.36
2023-07-09T22:16:28.104Z,50.55
2023-07-09T22:18:55.690Z,49.66
2023-07-09T22:21:23.102Z,49.97
2023-07-09T22:23:58.074Z,50.16
2023-07-09T22:26:25.504Z,50.27
2023-07-09T22:28:53.193Z,49.90
2023-07-09T22:31:20.811Z,49.86
2023-07-09T22:33:48.291Z,49.95
2023-07-09T22:36:15.914Z,49.70
2023-07-09T22:38:43.337Z,49.84
2023-07-09T22:41:10.962Z,50.24
2023-07-09T22:43:38.721Z,51.03
2023-07-09T22:46:06.479Z,50.81
2023-07-09T22:48:34.149Z,50.89
2023-07-09T22:51:01.914Z,51.66
2023-07-09T22:53:29.410Z,51.57
2023-07-09T22:55:56.824Z,51.09
2023-07-09T22:58:24.606Z,51.13
2023-07-09T23:00:56.140Z,51.38
2023-07-09T23:03:30.907Z,51.23
2023-07-09T23:05:58.511Z,52.30
2023-07-09T23:08:28.595Z,51.76
2023-07-09T23:10:58.365Z,52.50
2023-07-09T23:13:29.098Z,51.04
2023-07-09T23:15:56.604Z,52.50
2023-07-09T23:18:24.130Z,52.50
2023-07-09T23:20:51.832Z,53.10
2023-07-09T23:23:19.689Z,53.02
2023-07-09T23:25:48.257Z,52.64
2023-07-09T23:28:16.686Z,53.87
2023-07-09T23:30:44.456Z,53.50
2023-07-09T23:33:25.318Z,53.12
2023-07-09T23:35:53.720Z,53.49
2023-07-09T23:38:21.167Z,52.66
2023-07-09T23:40:48.720Z,53.60
2023-07-09T23:43:17.487Z,52.61
2023-07-09T23:45:45.277Z,54.12
2023-07-09T23:48:26.069Z,53.08
2023-07-09T23:50:59.756Z,53.48
2023-07-09T23:53:33.724Z,53.89
2023-07-09T23:56:25.721Z,53.35
2023-07-09T23:58:53.115Z,53.38
